createdAt,value
2018-07-09T00:01:43.507Z,2.10
2018-07-09T00:04:46.726Z,2.10
2018-07-09T00:07:50.002Z,2.07
2018-07-09T00:11:00.474Z,1.97
2018-07-09T00:14:03.421Z,2.07
2018-07-09T00:17:06.658Z,2.43
2018-07-09T00:20:09.930Z,2.40
2018-07-09T00:23:13.278Z,2.10
2018-07-09T00:26:16.479Z,2.13
2018-07-09T00:29:19.896Z,2.10
2018-07-09T00:32:23.200Z,2.20
2018-07-09T00:35:26.909Z,2.30
2018-07-09T00:38:30.159Z,2.40
2018-07-09T00:41:33.450Z,2.40
2018-07-09T00:44:36.447Z,2.13
2018-07-09T00:47:39.706Z,2.40
2018-07-09T00:50:42.930Z,2.13
2018-07-09T00:53:46.122Z,2.00
2018-07-09T00:56:49.823Z,2.30
2018-07-09T00:59:52.949Z,2.10
2018-07-09T01:02:56.194Z,2.37
2018-07-09T01:05:59.366Z,2.40
2018-07-09T01:09:02.986Z,2.17
2018-07-09T01:12:11.140Z,2.30
2018-07-09T01:15:14.365Z,2.30
2018-07-09T01:18:17.598Z,2.40
2018-07-09T01:21:21.457Z,2.80
2018-07-09T01:24:24.718Z,2.50
2018-07-09T01:27:27.950Z,2.20
2018-07-09T01:30:34.906Z,3.43
2018-07-09T01:33:38.161Z,4.70
2018-07-09T01:36:41.438Z,2.87
2018-07-09T01:39:44.779Z,2.70
2018-07-09T01:42:47.732Z,2.70
2018-07-09T01:45:50.926Z,2.67
2018-07-09T01:48:54.198Z,2.50
2018-07-09T01:51:57.397Z,2.70
2018-07-09T01:55:01.002Z,2.77
2018-07-09T01:58:04.685Z,2.73
2018-07-09T02:01:07.926Z,2.77
2018-07-09T02:04:11.229Z,2.43
2018-07-09T02:07:14.416Z,2.40
2018-07-09T02:10:17.729Z,2.60
2018-07-09T02:13:21.044Z,2.70
2018-07-09T02:16:24.382Z,3.20
2018-07-09T02:19:27.694Z,6.73
2018-07-09T02:22:30.761Z,3.10
2018-07-09T02:25:33.857Z,3.37
2018-07-09T02:28:36.949Z,3.40
2018-07-09T02:31:40.038Z,3.20
2018-07-09T02:34:43.131Z,4.80
2018-07-09T02:37:46.222Z,4.40
2018-07-09T02:40:49.333Z,4.53
2018-07-09T02:43:52.429Z,3.67
2018-07-09T02:46:55.501Z,3.60
2018-07-09T02:49:58.566Z,3.30
2018-07-09T02:53:01.634Z,3.93
2018-07-09T02:56:04.704Z,3.43
2018-07-09T02:59:07.794Z,3.43
2018-07-09T03:02:10.881Z,3.67
2018-07-09T03:05:13.974Z,3.23
2018-07-09T03:08:17.054Z,3.53
2018-07-09T03:11:20.150Z,5.07
2018-07-09T03:14:23.350Z,5.33
2018-07-09T03:17:26.653Z,3.80
2018-07-09T03:20:29.966Z,3.77
2018-07-09T03:23:32.913Z,3.77
2018-07-09T03:26:36.132Z,3.50
2018-07-09T03:29:39.460Z,3.67
2018-07-09T03:32:42.678Z,3.80
2018-07-09T03:35:46.928Z,4.40
2018-07-09T03:38:50.230Z,4.90
2018-07-09T03:41:53.890Z,4.60
2018-07-09T03:44:57.108Z,4.53
2018-07-09T03:48:00.297Z,4.73
2018-07-09T03:51:03.590Z,5.33
2018-07-09T03:54:06.762Z,5.47
2018-07-09T03:57:09.986Z,5.27
2018-07-09T04:00:13.197Z,5.13
2018-07-09T04:03:16.570Z,4.97
2018-07-09T04:06:19.802Z,5.40
2018-07-09T04:09:23.152Z,5.63
2018-07-09T04:12:26.435Z,6.20
2018-07-09T04:15:29.643Z,6.17
2018-07-09T04:18:32.874Z,5.93
2018-07-09T04:21:36.055Z,5.50
2018-07-09T04:24:39.273Z,5.33
2018-07-09T04:27:42.566Z,5.60
2018-07-09T04:30:46.134Z,5.17
2018-07-09T04:33:49.366Z,5.43
2018-07-09T04:36:52.559Z,5.83
2018-07-09T04:39:55.818Z,5.67
2018-07-09T04:42:59.186Z,5.57
2018-07-09T04:46:02.530Z,6.13
2018-07-09T04:49:05.854Z,5.90
2018-07-09T04:52:09.107Z,6.20
2018-07-09T04:55:12.373Z,5.70
2018-07-09T04:58:15.660Z,5.60
2018-07-09T05:01:18.894Z,6.17
2018-07-09T05:04:22.054Z,5.67
2018-07-09T05:07:25.344Z,5.40
2018-07-09T05:10:28.642Z,5.20
2018-07-09T05:13:31.818Z,5.80
2018-07-09T05:16:34.751Z,5.77
2018-07-09T05:19:37.999Z,5.93
2018-07-09T05:22:41.171Z,5.50
2018-07-09T05:25:44.435Z,5.60
2018-07-09T05:28:47.762Z,5.33
2018-07-09T05:31:51.011Z,5.43
2018-07-09T05:34:54.311Z,5.53
2018-07-09T05:37:57.569Z,5.30
2018-07-09T05:41:00.730Z,5.07
2018-07-09T05:44:03.902Z,5.50
2018-07-09T05:47:07.519Z,5.30
2018-07-09T05:50:10.854Z,6.13
2018-07-09T05:53:14.174Z,5.73
2018-07-09T05:56:17.498Z,5.60
2018-07-09T05:59:20.747Z,5.73
2018-07-09T06:02:24.018Z,6.00
2018-07-09T06:05:27.263Z,6.70
2018-07-09T06:08:30.512Z,6.30
2018-07-09T06:11:33.775Z,6.53
2018-07-09T06:14:37.035Z,7.03
2018-07-09T06:17:40.331Z,6.80
2018-07-09T06:20:43.296Z,6.70
2018-07-09T06:23:46.497Z,5.83
2018-07-09T06:26:49.677Z,6.33
2018-07-09T06:29:52.911Z,4.77
2018-07-09T06:32:56.240Z,4.47
2018-07-09T06:35:59.407Z,3.70
2018-07-09T06:39:02.670Z,3.80
2018-07-09T06:42:05.959Z,3.07
2018-07-09T06:45:09.120Z,3.50
2018-07-09T06:48:12.408Z,2.90
2018-07-09T06:51:15.337Z,2.87
2018-07-09T06:54:18.529Z,2.90
2018-07-09T06:57:21.646Z,2.83
2018-07-09T07:00:24.497Z,2.60
2018-07-09T07:03:27.578Z,2.50
2018-07-09T07:06:30.658Z,2.37
2018-07-09T07:09:33.742Z,2.40
2018-07-09T07:12:36.819Z,2.03
2018-07-09T07:15:39.878Z,2.53
2018-07-09T07:18:42.989Z,2.50
2018-07-09T07:21:46.053Z,2.50
2018-07-09T07:24:49.237Z,2.37
2018-07-09T07:27:52.590Z,2.13
2018-07-09T07:30:55.706Z,2.10
2018-07-09T07:33:58.758Z,1.85
2018-07-09T07:37:01.829Z,2.10
2018-07-09T07:40:04.884Z,2.35
2018-07-09T07:43:07.985Z,2.33
2018-07-09T07:46:11.070Z,1.62
2018-07-09T07:49:14.165Z,3.90
2018-07-09T07:52:17.261Z,2.75
2018-07-09T07:55:20.330Z,1.82
2018-07-09T07:58:23.421Z,1.95
2018-07-09T08:01:26.544Z,1.80
2018-07-09T08:04:29.633Z,1.70
2018-07-09T08:07:32.724Z,1.85
2018-07-09T08:10:35.820Z,1.80
2018-07-09T08:13:39.006Z,1.80
2018-07-09T08:16:42.134Z,1.90
2018-07-09T08:19:45.346Z,2.00
2018-07-09T08:22:48.542Z,1.70
2018-07-09T08:25:51.633Z,2.00
2018-07-09T08:28:54.721Z,2.10
2018-07-09T08:32:05.564Z,2.00
2018-07-09T08:35:08.640Z,2.30
2018-07-09T08:38:11.753Z,1.90
2018-07-09T08:41:14.869Z,1.90
2018-07-09T08:44:17.994Z,1.90
2018-07-09T08:47:21.198Z,2.10
2018-07-09T08:50:24.353Z,2.20
2018-07-09T08:53:27.586Z,1.70
2018-07-09T08:56:30.826Z,1.90
2018-07-09T08:59:34.341Z,2.00
2018-07-09T09:02:37.574Z,1.97
2018-07-09T09:05:40.880Z,2.30
2018-07-09T09:08:44.062Z,2.20
2018-07-09T09:11:47.370Z,2.57
2018-07-09T09:14:50.625Z,2.53
2018-07-09T09:17:53.775Z,2.50
2018-07-09T09:20:56.774Z,2.80
2018-07-09T09:24:00.001Z,2.30
2018-07-09T09:30:31.339Z,2.43
2018-07-09T09:33:34.405Z,2.60
2018-07-09T09:36:37.520Z,2.73
2018-07-09T09:39:40.625Z,2.60
2018-07-09T09:42:43.694Z,2.40
2018-07-09T09:45:46.801Z,2.77
2018-07-09T09:48:49.861Z,2.63
2018-07-09T09:51:52.933Z,2.50
2018-07-09T09:54:56.052Z,2.60
2018-07-09T09:57:59.071Z,2.73
2018-07-09T10:01:02.145Z,2.50
2018-07-09T10:04:05.393Z,2.70
2018-07-09T10:07:08.453Z,2.60
2018-07-09T10:10:11.534Z,2.63
2018-07-09T10:13:14.621Z,2.70
2018-07-09T10:16:17.713Z,2.73
2018-07-09T10:19:20.809Z,2.63
2018-07-09T10:22:23.892Z,2.90
2018-07-09T10:25:26.978Z,2.63
2018-07-09T10:28:30.058Z,2.60
2018-07-09T10:31:33.185Z,2.60
2018-07-09T10:34:36.075Z,2.80
2018-07-09T10:37:39.173Z,2.60
2018-07-09T10:40:42.250Z,2.43
2018-07-09T10:43:45.321Z,2.30
2018-07-09T10:46:48.414Z,7.60
2018-07-09T10:49:51.507Z,2.40
2018-07-09T10:52:54.598Z,2.80
2018-07-09T10:55:57.717Z,2.00
2018-07-09T10:59:00.785Z,2.27
2018-07-09T11:02:03.885Z,2.50
2018-07-09T11:05:06.973Z,2.30
2018-07-09T11:08:10.069Z,2.13
2018-07-09T11:11:13.165Z,2.30
2018-07-09T11:14:16.258Z,2.50
2018-07-09T11:17:19.353Z,2.10
2018-07-09T11:20:22.442Z,1.90
2018-07-09T11:23:25.551Z,2.03
2018-07-09T11:26:28.616Z,2.30
2018-07-09T11:29:31.892Z,2.47
2018-07-09T11:32:34.981Z,2.13
2018-07-09T11:35:38.067Z,3.93
2018-07-09T11:38:41.149Z,2.70
2018-07-09T11:41:44.238Z,2.17
2018-07-09T11:44:47.330Z,2.10
2018-07-09T11:47:50.389Z,2.00
2018-07-09T11:50:53.492Z,2.10
2018-07-09T11:53:56.609Z,2.20
2018-07-09T11:56:59.710Z,1.83
2018-07-09T12:00:03.122Z,2.10
2018-07-09T12:03:06.217Z,1.90
2018-07-09T12:06:09.389Z,1.90
2018-07-09T12:09:12.541Z,2.33
2018-07-09T12:12:15.650Z,2.13
2018-07-09T12:15:18.696Z,2.17
2018-07-09T12:18:21.553Z,2.10
2018-07-09T12:21:24.630Z,2.30
2018-07-09T12:24:27.739Z,2.77
2018-07-09T12:27:31.037Z,2.50
2018-07-09T12:30:34.093Z,2.73
2018-07-09T12:33:37.148Z,2.70
2018-07-09T12:36:40.027Z,2.90
2018-07-09T12:39:43.098Z,2.83
2018-07-09T12:42:46.177Z,2.70
2018-07-09T12:45:49.245Z,2.73
2018-07-09T12:48:52.313Z,2.90
2018-07-09T12:51:55.410Z,2.97
2018-07-09T12:54:58.486Z,2.50
2018-07-09T12:58:01.349Z,2.80
2018-07-09T13:01:04.392Z,2.77
2018-07-09T13:04:07.459Z,2.67
2018-07-09T13:07:10.558Z,2.87
2018-07-09T13:10:13.630Z,3.17
2018-07-09T13:13:16.703Z,2.90
2018-07-09T13:16:19.797Z,11.70
2018-07-09T13:19:22.890Z,3.07
2018-07-09T13:22:25.984Z,3.17
2018-07-09T13:25:29.077Z,2.80
2018-07-09T13:28:32.187Z,4.80
2018-07-09T13:31:35.033Z,4.03
2018-07-09T13:34:38.117Z,3.50
2018-07-09T13:37:41.309Z,2.57
2018-07-09T13:40:44.382Z,3.20
2018-07-09T13:43:47.473Z,2.73
2018-07-09T13:46:50.565Z,2.87
2018-07-09T13:49:54.253Z,3.30
2018-07-09T13:52:57.336Z,8.13
2018-07-09T13:56:00.273Z,3.50
2018-07-09T13:59:03.350Z,2.83
2018-07-09T14:02:06.438Z,2.90
2018-07-09T14:05:09.500Z,2.67
2018-07-09T14:08:12.609Z,3.00
2018-07-09T14:11:15.690Z,3.83
2018-07-09T14:14:18.753Z,2.80
2018-07-09T14:17:21.808Z,2.90
2018-07-09T14:20:27.669Z,2.77
2018-07-09T14:23:30.726Z,2.90
2018-07-09T14:26:33.800Z,3.10
2018-07-09T14:29:36.886Z,3.13
2018-07-09T14:32:40.162Z,2.80
2018-07-09T14:35:43.212Z,3.10
2018-07-09T14:38:46.269Z,10.37
2018-07-09T14:41:49.338Z,3.40
2018-07-09T14:44:52.622Z,2.90
2018-07-09T14:47:55.678Z,3.23
2018-07-09T14:50:58.758Z,2.90
2018-07-09T14:54:01.843Z,3.20
2018-07-09T14:57:04.975Z,3.73
2018-07-09T15:00:08.186Z,3.80
2018-07-09T15:03:11.365Z,3.53
2018-07-09T15:06:14.554Z,3.10
2018-07-09T15:09:17.822Z,3.30
2018-07-09T15:12:20.993Z,3.50
2018-07-09T15:15:24.187Z,3.40
2018-07-09T15:18:27.374Z,3.30
2018-07-09T15:21:30.587Z,3.27
2018-07-09T15:24:33.878Z,3.43
2018-07-09T15:27:37.081Z,2.87
2018-07-09T15:30:40.324Z,3.40
2018-07-09T15:33:43.548Z,4.60
2018-07-09T15:36:46.745Z,4.10
2018-07-09T15:39:49.950Z,3.97
2018-07-09T15:42:53.083Z,4.13
2018-07-09T15:45:56.258Z,4.20
2018-07-09T15:48:59.884Z,4.37
2018-07-09T15:55:37.735Z,4.77
2018-07-09T15:58:40.992Z,5.23
2018-07-09T16:01:44.201Z,3.70
2018-07-09T16:04:47.447Z,4.70
2018-07-09T16:07:50.618Z,4.17
2018-07-09T16:10:53.774Z,3.47
2018-07-09T16:13:56.963Z,4.37
2018-07-09T16:17:00.195Z,3.90
2018-07-09T16:20:03.426Z,4.00
2018-07-09T16:23:06.626Z,3.77
2018-07-09T16:26:09.979Z,3.90
2018-07-09T16:29:13.184Z,4.43
2018-07-09T16:32:16.420Z,4.90
2018-07-09T16:35:19.662Z,4.23
2018-07-09T16:38:22.858Z,4.20
2018-07-09T16:41:26.093Z,4.20
2018-07-09T16:44:29.394Z,5.60
2018-07-09T16:47:32.601Z,4.70
2018-07-09T16:50:35.795Z,5.67
2018-07-09T16:53:38.985Z,5.17
2018-07-09T16:56:42.219Z,5.40
2018-07-09T16:59:45.432Z,4.40
2018-07-09T17:02:48.479Z,4.40
2018-07-09T17:05:51.697Z,4.97
2018-07-09T17:08:54.851Z,4.20
2018-07-09T17:11:58.048Z,4.53
2018-07-09T17:15:01.271Z,4.57
2018-07-09T17:18:04.946Z,4.70
2018-07-09T17:21:08.198Z,5.00
2018-07-09T17:24:11.150Z,5.03
2018-07-09T17:27:14.434Z,5.60
2018-07-09T17:30:17.582Z,6.43
2018-07-09T17:33:20.834Z,7.13
2018-07-09T17:36:24.099Z,4.27
2018-07-09T17:39:27.295Z,4.30
2018-07-09T17:42:30.570Z,5.00
2018-07-09T17:45:33.785Z,5.07
2018-07-09T17:48:36.971Z,5.27
2018-07-09T17:51:40.186Z,4.23
2018-07-09T17:54:43.411Z,4.40
2018-07-09T17:57:46.724Z,4.10
2018-07-09T18:00:49.919Z,4.10
2018-07-09T18:03:53.138Z,4.63
2018-07-09T18:06:56.500Z,5.70
2018-07-09T18:09:59.753Z,5.70
2018-07-09T18:13:02.967Z,4.30
2018-07-09T18:16:06.202Z,3.83
2018-07-09T18:19:09.637Z,3.63
2018-07-09T18:22:12.710Z,3.40
2018-07-09T18:25:15.676Z,3.17
2018-07-09T18:28:18.745Z,3.30
2018-07-09T18:31:21.904Z,3.40
2018-07-09T18:34:25.007Z,3.07
2018-07-09T18:37:28.077Z,3.83
2018-07-09T18:40:31.166Z,4.17
2018-07-09T18:43:34.250Z,3.70
2018-07-09T18:46:37.361Z,2.93
2018-07-09T18:49:40.421Z,2.80
2018-07-09T18:52:43.516Z,2.50
2018-07-09T18:55:46.645Z,2.63
2018-07-09T18:58:49.725Z,2.80
2018-07-09T19:01:52.799Z,2.17
2018-07-09T19:04:55.877Z,2.70
2018-07-09T19:07:58.781Z,2.77
2018-07-09T19:11:01.930Z,2.30
2018-07-09T19:14:05.121Z,2.33
2018-07-09T19:17:49.021Z,2.47
2018-07-09T19:21:44.558Z,2.30
2018-07-09T19:24:46.783Z,2.87
2018-07-09T19:27:49.062Z,2.97
2018-07-09T19:30:51.590Z,3.00
2018-07-09T19:33:53.808Z,3.73
2018-07-09T19:36:56.209Z,2.70
2018-07-09T19:39:58.269Z,3.00
2018-07-09T19:43:00.523Z,2.20
2018-07-09T19:46:02.853Z,3.20
2018-07-09T19:49:04.962Z,2.83
2018-07-09T19:52:07.242Z,6.27
2018-07-09T19:55:09.431Z,3.30
2018-07-09T19:58:11.609Z,3.17
2018-07-09T20:01:13.761Z,3.00
2018-07-09T20:04:15.913Z,2.80
2018-07-09T20:07:18.324Z,2.83
2018-07-09T20:10:25.964Z,2.40
2018-07-09T20:14:33.372Z,2.10
2018-07-09T20:17:36.245Z,2.13
2018-07-09T20:20:38.401Z,2.10
2018-07-09T20:23:40.553Z,2.03
2018-07-09T20:26:42.728Z,2.20
2018-07-09T20:29:44.885Z,2.30
2018-07-09T20:32:47.228Z,1.90
2018-07-09T20:35:49.377Z,1.70
2018-07-09T20:38:51.551Z,2.20
2018-07-09T20:41:53.723Z,2.20
2018-07-09T20:44:55.898Z,2.30
2018-07-09T20:47:58.070Z,2.20
2018-07-09T20:51:00.480Z,2.10
2018-07-09T20:54:02.641Z,1.80
2018-07-09T20:57:04.813Z,2.00
2018-07-09T21:00:06.981Z,2.50
2018-07-09T21:03:09.153Z,2.50
2018-07-09T21:06:11.318Z,2.30
2018-07-09T21:09:13.498Z,2.17
2018-07-09T21:12:15.669Z,2.53
2018-07-09T21:15:18.063Z,2.20
2018-07-09T21:18:20.053Z,2.23
2018-07-09T21:21:26.473Z,2.70
2018-07-09T21:24:28.648Z,2.80
2018-07-09T21:27:30.862Z,2.47
2018-07-09T21:30:33.026Z,2.60
2018-07-09T21:33:35.206Z,3.13
2018-07-09T21:36:37.382Z,3.10
2018-07-09T21:39:39.533Z,9.67
2018-07-09T21:42:41.708Z,4.17
2018-07-09T21:45:43.852Z,3.70
2018-07-09T21:48:46.094Z,3.97
2018-07-09T21:51:48.186Z,3.90
2018-07-09T21:54:50.356Z,3.43
2018-07-09T21:57:52.530Z,3.70
2018-07-09T22:00:54.700Z,3.83
2018-07-09T22:03:56.874Z,3.80
2018-07-09T22:06:59.045Z,3.87
2018-07-09T22:10:01.217Z,4.30
2018-07-09T22:13:03.389Z,4.17
2018-07-09T22:16:05.618Z,4.33
2018-07-09T22:19:07.785Z,3.97
2018-07-09T22:22:09.941Z,4.30
2018-07-09T22:25:12.352Z,4.20
2018-07-09T22:28:14.514Z,4.40
2018-07-09T22:31:17.603Z,4.30
2018-07-09T22:34:20.669Z,3.93
2018-07-09T22:37:23.757Z,4.07
2018-07-09T22:40:26.826Z,3.80
2018-07-09T22:43:41.331Z,4.57
2018-07-09T22:46:44.584Z,3.63
2018-07-09T22:49:47.645Z,3.70
2018-07-09T22:52:50.713Z,4.20
2018-07-09T22:56:06.260Z,4.00
2018-07-09T22:59:09.314Z,4.07
2018-07-09T23:02:12.381Z,3.60
2018-07-09T23:05:15.453Z,4.00
2018-07-09T23:08:18.531Z,4.00
2018-07-09T23:11:34.851Z,3.97
2018-07-09T23:14:51.413Z,3.70
2018-07-09T23:18:06.042Z,3.97
2018-07-09T23:21:35.885Z,3.90
2018-07-09T23:24:38.033Z,3.73
2018-07-09T23:27:40.192Z,4.20
2018-07-09T23:30:42.368Z,3.70
2018-07-09T23:33:44.518Z,3.20
2018-07-09T23:36:46.941Z,2.97
2018-07-09T23:39:49.102Z,3.20
2018-07-09T23:42:51.256Z,2.70
2018-07-09T23:45:53.427Z,2.73
2018-07-09T23:48:55.584Z,2.70
2018-07-09T23:51:57.739Z,3.10
2018-07-09T23:54:59.941Z,2.90
2018-07-09T23:59:12.101Z,2.50
